Time;durP1;ratioP1;P1;durP2;ratioP2;P2;SDS_P1;SDS_P2;PMS_P1;PMS_P2;Temp;Humidity;BMP_temperature;BMP_pressure;BME280_temperature;BME280_humidity;BME280_pressure;Samples;Min_cycle;Max_cycle;Signal;HPM_P1;HPM_P2
2022/04/12 00:01:33;;;;;;;5.72;2.85;;;9.70;68.40;;;;;;4936934;29;20039;-87
2022/04/12 00:04:00;;;;;;;5.22;2.63;;;9.70;68.50;;;;;;4954316;29;20024;-87
2022/04/12 00:06:26;;;;;;;8.88;2.95;;;9.60;68.40;;;;;;4937569;29;20038;-87
2022/04/12 00:08:52;;;;;;;5.38;3.03;;;9.60;68.90;;;;;;4939452;29;20446;-87
2022/04/12 00:11:18;;;;;;;5.60;3.33;;;9.60;68.70;;;;;;4936538;29;20039;-88
2022/04/12 00:13:43;;;;;;;6.13;2.80;;;9.60;69.00;;;;;;4954248;29;20039;-87
2022/04/12 00:16:09;;;;;;;5.28;3.00;;;9.60;69.40;;;;;;4953966;28;20050;-86
2022/04/12 00:21:22;;;;;;;5.55;2.70;;;9.50;69.70;;;;;;4949580;29;20539;-86
2022/04/12 00:23:49;;;;;;;4.30;2.40;;;9.50;70.10;;;;;;4957284;29;20027;-86
2022/04/12 00:26:15;;;;;;;7.45;2.83;;;9.40;70.10;;;;;;4957580;29;20027;-87
2022/04/12 00:28:43;;;;;;;4.68;2.70;;;9.40;70.60;;;;;;4957699;29;20028;-88
2022/04/12 00:31:09;;;;;;;4.28;2.63;;;9.30;70.80;;;;;;4939881;29;20027;-86
2022/04/12 00:33:35;;;;;;;8.90;2.92;;;9.30;70.60;;;;;;4957027;28;20106;-87
2022/04/12 00:36:04;;;;;;;6.85;3.10;;;9.30;71.00;;;;;;4951846;29;20106;-87
2022/04/12 00:38:33;;;;;;;6.22;2.70;;;9.30;70.90;;;;;;4939856;29;20024;-88
2022/04/12 00:41:04;;;;;;;6.40;2.72;;;9.30;71.40;;;;;;4957478;29;20034;-88
2022/04/12 00:43:33;;;;;;;6.47;2.78;;;9.20;71.80;;;;;;4946472;29;20436;-87
2022/04/12 00:46:00;;;;;;;7.80;3.13;;;9.20;72.20;;;;;;4957379;29;20038;-86
2022/04/12 00:48:33;;;;;;;7.40;2.60;;;9.10;73.00;;;;;;4939857;29;20558;-88
2022/04/12 00:51:00;;;;;;;6.22;2.40;;;9.10;73.10;;;;;;4954490;28;20035;-88
2022/04/12 00:53:26;;;;;;;3.80;2.70;;;9.00;73.40;;;;;;4943964;29;20066;-88
2022/04/12 00:55:55;;;;;;;7.82;2.95;;;9.00;74.30;;;;;;4960918;28;20428;-88
2022/04/12 00:58:21;;;;;;;4.65;2.17;;;9.00;74.60;;;;;;4946890;29;20366;-88
2022/04/12 01:00:49;;;;;;;5.03;2.90;;;8.90;75.00;;;;;;4945806;29;20030;-87
2022/04/12 01:03:15;;;;;;;4.30;2.85;;;8.90;74.90;;;;;;4960144;28;20030;-88
2022/04/12 01:05:41;;;;;;;4.38;2.40;;;8.90;74.70;;;;;;4944401;29;20114;-88
2022/04/12 01:08:07;;;;;;;3.45;2.08;;;8.90;75.00;;;;;;4960416;29;20121;-87
2022/04/12 01:10:33;;;;;;;3.50;2.40;;;8.90;75.90;;;;;;4940037;29;20356;-87
2022/04/12 01:13:01;;;;;;;5.50;2.38;;;8.80;76.60;;;;;;4960225;28;20114;-86
2022/04/12 01:15:29;;;;;;;3.67;2.47;;;8.80;76.50;;;;;;4944915;29;20027;-86
2022/04/12 01:17:56;;;;;;;5.00;2.65;;;8.80;76.70;;;;;;4943539;29;20031;-88
2022/04/12 01:20:24;;;;;;;7.28;2.70;;;8.70;76.90;;;;;;4941578;29;20045;-88
2022/04/12 01:23:06;;;;;;;3.58;2.60;;;8.70;77.20;;;;;;4942560;29;20024;-87
2022/04/12 01:25:32;;;;;;;3.63;2.55;;;8.70;77.80;;;;;;4944084;29;20126;-88
2022/04/12 01:28:18;;;;;;;4.63;2.40;;;8.60;78.40;;;;;;4960954;28;20027;-88
2022/04/12 01:30:44;;;;;;;7.93;2.58;;;8.50;79.80;;;;;;4943637;29;20031;-87
2022/04/12 01:33:10;;;;;;;3.83;2.15;;;8.40;80.60;;;;;;4959216;28;20038;-87
2022/04/12 01:35:36;;;;;;;6.10;2.65;;;8.40;80.40;;;;;;4946376;29;20490;-88
2022/04/12 01:38:04;;;;;;;5.80;2.35;;;8.40;80.40;;;;;;4948165;29;20090;-88
2022/04/12 01:40:34;;;;;;;5.10;2.90;;;8.50;80.90;;;;;;4959541;29;20023;-87
2022/04/12 01:43:00;;;;;;;3.47;2.22;;;8.40;81.70;;;;;;4942664;29;20043;-87
2022/04/12 01:45:28;;;;;;;2.80;2.35;;;8.40;82.30;;;;;;4959995;29;20066;-88
2022/04/12 01:47:56;;;;;;;5.07;2.35;;;8.30;83.00;;;;;;4941459;29;20031;-87
2022/04/12 01:50:27;;;;;;;4.50;2.28;;;8.30;84.00;;;;;;4960855;29;20046;-87
2022/04/12 01:52:57;;;;;;;5.88;2.03;;;8.30;84.60;;;;;;4943310;28;20126;-88
2022/04/12 01:55:23;;;;;;;3.37;2.40;;;8.20;85.00;;;;;;4959839;29;20070;-88
2022/04/12 01:57:51;;;;;;;4.75;2.85;;;8.10;86.20;;;;;;4944903;29;20271;-89
2022/04/12 02:00:24;;;;;;;3.10;2.10;;;8.10;87.20;;;;;;4942630;29;20031;-88
2022/04/12 02:02:52;;;;;;;3.40;2.10;;;8.00;88.40;;;;;;4959635;29;20027;-88
2022/04/12 02:05:20;;;;;;;2.53;2.10;;;8.00;90.30;;;;;;4959559;29;20027;-87
2022/04/12 02:07:46;;;;;;;3.00;2.13;;;8.00;90.10;;;;;;4954718;29;20120;-87
2022/04/12 02:10:15;;;;;;;6.15;2.25;;;8.00;90.40;;;;;;4944535;29;20023;-86
2022/04/12 02:12:41;;;;;;;7.18;2.15;;;8.00;90.60;;;;;;4958314;29;20057;-87
2022/04/12 02:15:08;;;;;;;5.47;2.42;;;8.00;91.50;;;;;;4960044;29;20054;-88
2022/04/12 02:17:34;;;;;;;4.75;2.25;;;7.90;91.70;;;;;;4958108;29;20545;-87
2022/04/12 02:20:02;;;;;;;7.30;2.35;;;7.80;92.40;;;;;;4941868;29;20031;-88
2022/04/12 02:22:28;;;;;;;2.97;2.35;;;7.80;93.10;;;;;;4927693;29;20515;-89
2022/04/12 02:24:54;;;;;;;3.25;2.40;;;7.80;93.50;;;;;;4954548;28;20107;-87
2022/04/12 02:27:19;;;;;;;4.25;2.13;;;7.80;94.00;;;;;;4947351;29;20054;-87
2022/04/12 02:29:45;;;;;;;4.28;2.90;;;7.80;94.10;;;;;;4933791;29;20058;-88
2022/04/12 02:32:11;;;;;;;9.93;2.78;;;7.80;93.80;;;;;;4923201;29;20032;-87
2022/04/12 02:34:37;;;;;;;5.90;2.20;;;7.80;94.40;;;;;;4927216;29;20032;-87
2022/04/12 02:37:03;;;;;;;4.32;2.10;;;7.60;95.30;;;;;;4925752;29;20047;-88
2022/04/12 02:39:30;;;;;;;7.32;2.20;;;7.60;96.60;;;;;;4930245;29;20024;-86
2022/04/12 02:41:55;;;;;;;2.67;2.03;;;7.50;97.30;;;;;;4939398;29;20098;-87
2022/04/12 02:44:26;;;;;;;2.80;2.13;;;7.50;98.10;;;;;;4932596;29;20407;-86
2022/04/12 02:46:51;;;;;;;4.05;2.33;;;7.50;98.20;;;;;;4921817;29;20056;-88
2022/04/12 02:49:20;;;;;;;4.97;2.65;;;7.50;98.50;;;;;;4939156;29;20019;-88
2022/04/12 02:51:47;;;;;;;4.95;2.00;;;7.50;98.50;;;;;;4925545;29;20063;-88
2022/04/12 02:54:14;;;;;;;2.58;1.90;;;7.40;99.20;;;;;;4938047;29;20024;-88
2022/04/12 02:56:39;;;;;;;8.48;2.53;;;7.40;99.90;;;;;;4930977;29;20106;-88
2022/04/12 02:59:05;;;;;;;5.70;2.40;;;7.30;99.90;;;;;;4955678;29;20514;-89
2022/04/12 03:01:31;;;;;;;4.60;2.47;;;7.40;99.90;;;;;;4944995;29;20473;-88
2022/04/12 03:03:57;;;;;;;2.90;1.90;;;7.40;99.90;;;;;;4919981;29;20031;-88
2022/04/12 03:06:22;;;;;;;4.25;2.53;;;7.40;99.90;;;;;;4944351;29;20054;-88
2022/04/12 03:08:48;;;;;;;4.28;2.47;;;7.40;99.90;;;;;;4923011;29;20288;-88
2022/04/12 03:11:14;;;;;;;4.30;2.17;;;7.40;99.90;;;;;;4944671;29;20325;-89
2022/04/12 03:13:40;;;;;;;5.13;2.95;;;7.30;99.90;;;;;;4956189;28;20530;-89
2022/04/12 03:16:05;;;;;;;5.03;2.35;;;7.30;99.90;;;;;;4939270;29;20036;-88
2022/04/12 03:18:31;;;;;;;3.53;2.15;;;7.30;99.90;;;;;;4933888;29;20428;-88
2022/04/12 03:20:57;;;;;;;3.38;2.50;;;7.20;99.90;;;;;;4942406;28;20023;-87
2022/04/12 03:23:22;;;;;;;2.88;1.80;;;7.10;99.90;;;;;;4926370;29;20027;-87
2022/04/12 03:25:50;;;;;;;4.82;2.08;;;7.10;99.90;;;;;;4937782;29;20031;-87
2022/04/12 03:28:16;;;;;;;2.10;1.90;;;7.10;99.90;;;;;;4954459;29;20039;-86
2022/04/12 03:30:41;;;;;;;3.22;2.28;;;7.10;99.90;;;;;;4937268;29;20027;-85
2022/04/12 03:33:07;;;;;;;3.38;1.83;;;7.00;99.90;;;;;;4937165;29;20428;-86
2022/04/12 03:35:33;;;;;;;4.13;2.10;;;7.00;99.90;;;;;;4937373;29;20065;-86
2022/04/12 03:38:01;;;;;;;3.90;2.17;;;7.00;99.90;;;;;;4937340;29;20019;-87
2022/04/12 03:40:33;;;;;;;6.25;2.40;;;7.10;99.90;;;;;;4937126;29;20393;-88
2022/04/12 03:43:00;;;;;;;3.75;1.95;;;7.20;99.90;;;;;;4937548;29;20399;-87
2022/04/12 03:45:26;;;;;;;7.25;2.72;;;7.20;99.90;;;;;;4949688;29;20023;-87
2022/04/12 03:47:51;;;;;;;2.00;1.85;;;7.10;99.90;;;;;;4943548;29;20113;-86
2022/04/12 03:50:17;;;;;;;4.20;2.10;;;7.00;99.90;;;;;;4930251;28;20050;-88
2022/04/12 03:52:43;;;;;;;7.85;1.83;;;7.00;99.90;;;;;;4929531;28;20035;-88
2022/04/12 03:55:10;;;;;;;3.30;2.20;;;6.90;99.90;;;;;;4927673;29;20023;-88
2022/04/12 03:57:36;;;;;;;3.72;2.28;;;6.90;99.90;;;;;;4930681;29;20400;-88
2022/04/12 04:00:08;;;;;;;3.15;2.35;;;6.90;99.90;;;;;;4945884;28;20019;-87
2022/04/12 04:02:39;;;;;;;2.83;2.03;;;6.90;99.90;;;;;;4951286;29;20475;-87
2022/04/12 04:05:08;;;;;;;5.30;2.65;;;7.00;99.90;;;;;;4956060;28;20035;-87
2022/04/12 04:07:34;;;;;;;3.35;2.38;;;6.90;99.90;;;;;;4948728;28;20028;-86
2022/04/12 04:09:59;;;;;;;3.75;2.42;;;6.80;99.90;;;;;;4928836;29;20476;-87
2022/04/12 04:12:25;;;;;;;4.53;2.15;;;6.80;99.90;;;;;;4929496;28;20038;-87
2022/04/12 04:14:51;;;;;;;5.28;2.35;;;6.80;99.90;;;;;;4929556;29;20024;-88
2022/04/12 04:17:16;;;;;;;4.88;2.83;;;6.80;99.90;;;;;;4946394;29;20030;-87
2022/04/12 04:19:42;;;;;;;3.53;2.40;;;6.90;99.90;;;;;;4961734;28;20023;-87
2022/04/12 04:22:08;;;;;;;3.03;2.22;;;7.00;99.90;;;;;;4934611;29;20032;-87
2022/04/12 04:24:33;;;;;;;5.25;2.08;;;7.00;99.90;;;;;;4950121;28;20095;-87
2022/04/12 04:26:59;;;;;;;3.63;2.10;;;7.10;99.90;;;;;;4944309;29;20380;-88
2022/04/12 04:29:27;;;;;;;3.95;2.42;;;7.00;99.90;;;;;;4929479;29;20525;-88
2022/04/12 04:31:53;;;;;;;5.22;2.22;;;7.00;99.90;;;;;;4921166;29;20599;-87
2022/04/12 04:34:19;;;;;;;7.53;2.72;;;7.00;99.90;;;;;;4919982;29;20020;-87
2022/04/12 04:36:44;;;;;;;4.28;1.92;;;6.90;99.90;;;;;;4951229;29;20071;-86
2022/04/12 04:39:10;;;;;;;4.80;2.10;;;6.90;99.90;;;;;;4956276;29;20058;-87
2022/04/12 04:41:35;;;;;;;3.33;2.45;;;6.90;99.90;;;;;;4955949;29;20043;-87
2022/04/12 04:44:01;;;;;;;5.22;2.17;;;6.90;99.90;;;;;;4938359;29;20030;-86
2022/04/12 04:46:28;;;;;;;4.47;2.10;;;6.90;99.90;;;;;;4938408;29;20019;-87
2022/04/12 04:48:53;;;;;;;2.65;2.10;;;6.80;99.90;;;;;;4938841;29;20027;-87
2022/04/12 04:51:19;;;;;;;5.30;2.30;;;6.80;99.90;;;;;;4955590;29;20159;-86
2022/04/12 04:53:49;;;;;;;4.47;2.70;;;6.80;99.90;;;;;;4955824;28;20027;-87
2022/04/12 04:56:15;;;;;;;4.80;2.80;;;6.90;99.90;;;;;;4948084;29;20035;-88
2022/04/12 04:58:41;;;;;;;2.78;2.17;;;6.90;99.90;;;;;;4949241;28;20278;-86
2022/04/12 05:01:07;;;;;;;3.88;2.72;;;6.90;99.90;;;;;;4955735;29;20352;-87
2022/04/12 05:03:32;;;;;;;3.58;2.38;;;6.90;99.90;;;;;;4954965;28;20035;-89
2022/04/12 05:05:58;;;;;;;7.00;2.72;;;6.90;99.90;;;;;;4940422;29;20059;-88
2022/04/12 05:08:24;;;;;;;4.95;2.58;;;7.00;99.90;;;;;;4919391;29;20476;-87
2022/04/12 05:10:50;;;;;;;4.53;2.97;;;7.00;99.90;;;;;;4902198;28;1154890;-88
2022/04/12 05:13:16;;;;;;;4.97;2.92;;;7.00;99.90;;;;;;4939315;29;20492;-87
2022/04/12 05:15:41;;;;;;;5.18;2.30;;;7.10;99.90;;;;;;4939178;29;20121;-88
2022/04/12 05:18:08;;;;;;;3.00;2.13;;;7.20;99.90;;;;;;4939156;29;20093;-87
2022/04/12 05:20:34;;;;;;;7.85;2.63;;;7.30;99.90;;;;;;4939206;29;20039;-87
2022/04/12 05:22:59;;;;;;;3.38;2.08;;;7.40;99.90;;;;;;4957097;28;20027;-88
2022/04/12 05:25:25;;;;;;;7.50;2.38;;;7.40;99.90;;;;;;4939101;29;20027;-89
2022/04/12 05:27:51;;;;;;;9.10;3.35;;;7.40;99.90;;;;;;4936970;29;20054;-90
2022/04/12 05:30:17;;;;;;;4.43;2.53;;;7.50;99.90;;;;;;4956673;29;20031;-90
2022/04/12 05:32:43;;;;;;;2.97;1.80;;;7.60;99.90;;;;;;4957091;28;20027;-90
2022/04/12 05:35:10;;;;;;;5.35;2.03;;;7.60;99.90;;;;;;4938959;29;20114;-88
2022/04/12 05:37:52;;;;;;;4.90;2.30;;;7.60;99.90;;;;;;4939008;29;20020;-89
2022/04/12 05:40:21;;;;;;;;;;;7.70;99.90;;;;;;4939151;29;20114;-90
2022/04/12 05:42:47;;;;;;;6.15;2.55;;;7.80;99.90;;;;;;4938824;29;19913;-90
2022/04/12 05:45:14;;;;;;;4.75;2.63;;;8.00;99.90;;;;;;4938685;29;20089;-89
2022/04/12 05:47:45;;;;;;;5.75;2.70;;;8.10;99.90;;;;;;4938591;29;20065;-89
2022/04/12 05:50:12;;;;;;;5.80;2.58;;;8.30;99.30;;;;;;4938436;29;20024;-89
2022/04/12 05:52:41;;;;;;;5.75;2.15;;;8.40;98.20;;;;;;4938242;29;20142;-89
2022/04/12 05:55:08;;;;;;;5.95;2.35;;;8.50;96.00;;;;;;4956034;29;20428;-88
2022/04/12 05:57:46;;;;;;;4.10;2.35;;;8.60;94.90;;;;;;4938348;29;20163;-89
2022/04/12 06:00:12;;;;;;;4.05;2.70;;;8.70;93.50;;;;;;4955794;29;20403;-87
2022/04/12 06:02:38;;;;;;;4.68;2.15;;;8.80;93.40;;;;;;4955571;28;20023;-87
2022/04/12 06:05:04;;;;;;;3.83;2.60;;;8.90;94.80;;;;;;4956702;29;20027;-88
2022/04/12 06:07:32;;;;;;;3.72;2.00;;;9.00;93.70;;;;;;4957013;29;20031;-87
2022/04/12 06:09:59;;;;;;;7.07;2.50;;;9.20;94.20;;;;;;4957343;29;20121;-88
2022/04/12 06:12:25;;;;;;;5.95;2.60;;;9.20;91.70;;;;;;4937762;29;20027;-87
2022/04/12 06:14:51;;;;;;;6.90;2.58;;;9.30;90.70;;;;;;4954576;28;20023;-87
2022/04/12 06:17:17;;;;;;;7.00;2.53;;;9.40;89.30;;;;;;4955145;29;20047;-87
2022/04/12 06:19:42;;;;;;;4.95;2.50;;;9.50;87.60;;;;;;4938364;29;20126;-87
2022/04/12 06:22:08;;;;;;;5.03;3.20;;;9.50;85.90;;;;;;4937647;29;20035;-87
2022/04/12 06:24:33;;;;;;;3.55;2.45;;;9.60;84.50;;;;;;4955661;28;20510;-87
2022/04/12 06:26:59;;;;;;;5.50;2.70;;;9.70;84.20;;;;;;4938102;29;20086;-88
2022/04/12 06:29:25;;;;;;;7.22;2.50;;;9.80;83.00;;;;;;4938275;29;20059;-87
2022/04/12 06:31:51;;;;;;;5.05;2.35;;;9.90;82.00;;;;;;4937636;29;20081;-89
2022/04/12 06:34:25;;;;;;;3.58;2.42;;;10.10;81.00;;;;;;4937729;29;20451;-88
2022/04/12 06:36:51;;;;;;;3.92;2.45;;;10.20;80.70;;;;;;4955001;29;20047;-88
2022/04/12 06:39:19;;;;;;;5.55;2.58;;;10.30;78.80;;;;;;4936590;29;20070;-88
2022/04/12 06:41:44;;;;;;;3.88;2.30;;;10.40;78.60;;;;;;4938635;29;20035;-89
2022/04/12 06:44:13;;;;;;;4.25;2.28;;;10.50;78.40;;;;;;4938733;29;20368;-89
2022/04/12 06:46:39;;;;;;;2.92;2.13;;;10.70;76.90;;;;;;4939721;29;20391;-88
2022/04/12 06:49:07;;;;;;;3.97;2.20;;;10.80;76.40;;;;;;4938320;29;20051;-88
2022/04/12 06:51:36;;;;;;;3.50;2.42;;;10.80;75.90;;;;;;4955716;29;20027;-88
2022/04/12 06:54:02;;;;;;;2.53;1.70;;;11.00;75.00;;;;;;4938371;29;20803;-89
2022/04/12 06:56:28;;;;;;;4.90;2.05;;;11.00;74.30;;;;;;4955104;29;20046;-88
2022/04/12 06:58:54;;;;;;;6.75;2.97;;;11.10;74.00;;;;;;4954466;29;20126;-87
2022/04/12 07:01:20;;;;;;;5.75;2.20;;;11.20;73.20;;;;;;4936574;29;20118;-91
2022/04/12 07:03:45;;;;;;;3.85;2.35;;;11.20;73.20;;;;;;4955938;28;20502;-90
2022/04/12 07:06:11;;;;;;;4.72;2.08;;;11.20;72.90;;;;;;4938872;29;20392;-90
2022/04/12 07:08:37;;;;;;;5.53;2.22;;;11.30;72.30;;;;;;4939134;29;20122;-91
2022/04/12 07:11:05;;;;;;;3.95;2.20;;;11.30;72.60;;;;;;4958409;28;20037;-92
2022/04/12 07:13:31;;;;;;;5.88;2.20;;;11.40;73.00;;;;;;4938549;29;20369;-90
2022/04/12 07:15:56;;;;;;;2.92;2.17;;;11.40;71.80;;;;;;4956926;29;20031;-91
2022/04/12 07:18:22;;;;;;;8.25;2.50;;;11.40;71.10;;;;;;4956311;28;20110;-88
2022/04/12 07:20:48;;;;;;;2.58;1.83;;;11.50;71.90;;;;;;4937181;29;20031;-88
2022/04/12 07:23:14;;;;;;;6.88;2.15;;;11.60;71.20;;;;;;4953843;29;20555;-88
2022/04/12 07:25:39;;;;;;;4.07;1.98;;;11.70;71.30;;;;;;4953337;28;20032;-88
2022/04/12 07:28:05;;;;;;;4.47;2.00;;;11.90;70.70;;;;;;4936959;29;20078;-88
2022/04/12 07:30:31;;;;;;;4.47;2.10;;;12.00;70.60;;;;;;4954319;28;20027;-89
2022/04/12 07:32:56;;;;;;;3.22;2.30;;;12.10;70.00;;;;;;4937034;28;20047;-89
2022/04/12 07:35:22;;;;;;;3.28;2.10;;;12.30;69.70;;;;;;4936986;28;20027;-89
2022/04/12 07:37:48;;;;;;;3.45;2.17;;;12.40;69.50;;;;;;4937386;29;20023;-89
2022/04/12 07:40:14;;;;;;;2.97;1.98;;;12.50;68.40;;;;;;4967048;28;20028;-89
2022/04/12 07:42:40;;;;;;;4.75;1.85;;;12.70;67.20;;;;;;4975780;28;20020;-90
2022/04/12 07:45:06;;;;;;;6.60;2.08;;;12.70;67.20;;;;;;4976743;28;20016;-90
2022/04/12 07:47:34;;;;;;;2.35;1.63;;;12.90;67.10;;;;;;4976349;28;20019;-92
2022/04/12 07:50:00;;;;;;;2.97;1.73;;;13.00;66.90;;;;;;4977262;28;20027;-91
2022/04/12 07:52:25;;;;;;;2.58;1.70;;;13.20;66.50;;;;;;4957443;28;20055;-91
2022/04/12 07:54:51;;;;;;;3.83;1.50;;;13.40;66.00;;;;;;4957229;28;20070;-89
2022/04/12 07:57:16;;;;;;;2.00;1.52;;;13.50;64.50;;;;;;4938980;29;20034;-90
2022/04/12 07:59:42;;;;;;;6.70;1.90;;;13.70;64.10;;;;;;4937938;29;20035;-88
2022/04/12 08:02:08;;;;;;;2.47;1.60;;;13.80;63.60;;;;;;4954091;28;20451;-89
2022/04/12 08:04:34;;;;;;;4.80;1.38;;;13.90;63.30;;;;;;4938116;29;20039;-90
2022/04/12 08:06:59;;;;;;;3.30;1.50;;;14.10;62.00;;;;;;4956575;29;20031;-90
2022/04/12 08:09:25;;;;;;;2.75;1.55;;;14.10;60.70;;;;;;4938008;29;20078;-91
2022/04/12 08:11:51;;;;;;;5.95;1.38;;;14.00;60.50;;;;;;4953744;28;20449;-91
2022/04/12 08:14:16;;;;;;;2.85;1.75;;;14.10;60.50;;;;;;4955023;28;20023;-90
2022/04/12 08:16:42;;;;;;;2.40;1.10;;;14.20;61.70;;;;;;4955697;29;20131;-90
2022/04/12 08:19:07;;;;;;;3.67;1.27;;;14.20;60.70;;;;;;4945247;29;20069;-89
2022/04/12 08:21:40;;;;;;;2.47;1.73;;;14.30;59.80;;;;;;4930984;29;20026;-89
2022/04/12 08:24:06;;;;;;;2.75;1.50;;;14.20;60.80;;;;;;4949841;28;20026;-88
2022/04/12 08:26:32;;;;;;;2.42;1.20;;;14.30;60.10;;;;;;4946986;28;20023;-88
2022/04/12 08:28:58;;;;;;;3.55;1.38;;;14.50;59.70;;;;;;4948204;29;20110;-88
2022/04/12 08:31:23;;;;;;;2.03;1.35;;;14.60;59.50;;;;;;4954210;29;20027;-89
2022/04/12 08:33:49;;;;;;;5.55;1.73;;;14.60;58.90;;;;;;4952803;29;20038;-88
2022/04/12 08:36:16;;;;;;;2.83;1.38;;;14.60;59.60;;;;;;4936517;29;20027;-90
2022/04/12 08:38:47;;;;;;;1.58;1.30;;;14.70;58.60;;;;;;4955822;28;20036;-87
2022/04/12 08:41:14;;;;;;;2.10;1.17;;;14.80;58.70;;;;;;4956968;29;20082;-90
2022/04/12 08:43:41;;;;;;;5.28;1.52;;;14.90;57.70;;;;;;4940017;29;20151;-89
2022/04/12 08:46:07;;;;;;;4.65;1.75;;;15.00;57.10;;;;;;4957258;28;20459;-88
2022/04/12 08:48:34;;;;;;;2.97;1.55;;;15.10;57.10;;;;;;4957497;28;20031;-89
2022/04/12 08:51:04;;;;;;;4.05;1.30;;;15.30;56.70;;;;;;4939079;29;20031;-89
2022/04/12 08:53:30;;;;;;;3.75;1.38;;;15.40;56.10;;;;;;4956859;28;20027;-88
2022/04/12 08:55:56;;;;;;;2.33;1.20;;;15.50;55.90;;;;;;4956732;29;20086;-88
2022/04/12 08:58:22;;;;;;;3.33;1.33;;;15.50;55.10;;;;;;4955483;28;20032;-88
2022/04/12 09:00:49;;;;;;;2.78;1.10;;;15.60;53.30;;;;;;4956793;29;20444;-89
2022/04/12 09:03:15;;;;;;;3.95;1.08;;;15.70;54.30;;;;;;4956806;28;20078;-88
2022/04/12 09:05:41;;;;;;;1.65;1.20;;;15.80;54.40;;;;;;4939731;29;20031;-88
2022/04/12 09:08:36;;;;;;;1.65;1.10;;;16.00;53.20;;;;;;4956860;29;20038;-88
2022/04/12 09:11:05;;;;;;;1.13;1.02;;;16.10;52.70;;;;;;4939581;29;20101;-87
2022/04/12 09:13:31;;;;;;;2.22;1.20;;;16.20;52.60;;;;;;4956821;28;20054;-88
2022/04/12 09:15:58;;;;;;;4.53;1.10;;;16.40;52.50;;;;;;4939402;29;20027;-88
2022/04/12 09:18:34;;;;;;;2.47;1.08;;;16.60;51.40;;;;;;4956700;29;20023;-87
2022/04/12 09:21:14;;;;;;;4.95;1.75;;;16.60;52.20;;;;;;4956422;28;20027;-87
2022/04/12 09:23:47;;;;;;;1.55;1.13;;;16.70;52.30;;;;;;4956545;28;20054;-88
2022/04/12 09:26:17;;;;;;;3.33;0.93;;;16.70;51.20;;;;;;4956423;28;20119;-88
2022/04/12 09:28:43;;;;;;;4.10;1.20;;;16.90;51.50;;;;;;4939626;29;20264;-90
2022/04/12 09:31:14;;;;;;;2.60;1.20;;;17.20;50.80;;;;;;4939648;29;20028;-89
2022/04/12 09:33:41;;;;;;;2.58;1.30;;;17.50;49.10;;;;;;4956039;28;20031;-89
2022/04/12 09:36:08;;;;;;;2.42;1.17;;;17.70;48.60;;;;;;4939480;29;20023;-90
2022/04/12 09:38:36;;;;;;;1.65;1.00;;;17.70;48.40;;;;;;4939167;29;20031;-89
2022/04/12 09:41:19;;;;;;;2.25;1.05;;;17.70;49.60;;;;;;4955912;29;20027;-90
2022/04/12 09:43:59;;;;;;;1.40;1.10;;;18.00;48.90;;;;;;4970499;22;20082;-86
2022/04/12 09:46:26;;;;;;;1.63;1.00;;;18.20;48.50;;;;;;4917169;29;20130;-88
2022/04/12 09:48:53;;;;;;;4.00;1.27;;;18.50;49.60;;;;;;4918138;29;20052;-88
2022/04/12 09:51:22;;;;;;;6.32;1.33;;;18.70;47.50;;;;;;4917113;29;20088;-87
2022/04/12 09:53:48;;;;;;;1.85;1.08;;;18.90;47.30;;;;;;4917901;29;20116;-88
2022/04/12 09:56:25;;;;;;;2.17;1.20;;;19.20;46.90;;;;;;4918025;29;20107;-87
2022/04/12 09:58:55;;;;;;;1.83;0.90;;;19.50;46.50;;;;;;4916979;29;20079;-89
2022/04/12 10:01:23;;;;;;;4.28;1.10;;;19.60;46.10;;;;;;4924474;29;20031;-88
2022/04/12 10:03:56;;;;;;;1.83;1.30;;;19.70;45.60;;;;;;4956134;28;20046;-88
2022/04/12 10:06:24;;;;;;;2.70;1.02;;;20.00;45.50;;;;;;4954800;29;20035;-88
2022/04/12 10:09:00;;;;;;;1.60;1.10;;;20.30;45.30;;;;;;4954646;28;20118;-88
2022/04/12 10:11:26;;;;;;;2.15;0.90;;;20.60;45.00;;;;;;4955698;28;20027;-88
2022/04/12 10:13:52;;;;;;;1.50;0.88;;;20.80;45.50;;;;;;4954287;28;20399;-87
2022/04/12 10:16:22;;;;;;;2.03;1.10;;;21.00;43.60;;;;;;4954594;28;20023;-88
2022/04/12 10:18:49;;;;;;;2.28;1.08;;;21.20;44.00;;;;;;4949323;28;20028;-88
2022/04/12 10:21:15;;;;;;;2.35;1.13;;;21.50;43.90;;;;;;4936829;29;20148;-88
2022/04/12 10:23:48;;;;;;;2.70;1.23;;;21.70;42.30;;;;;;4936660;29;20080;-88
2022/04/12 10:26:18;;;;;;;2.25;1.00;;;22.00;42.40;;;;;;4936556;29;20106;-88
2022/04/12 10:28:44;;;;;;;3.10;0.77;;;21.90;41.10;;;;;;4935248;29;20028;-88
2022/04/12 10:31:12;;;;;;;1.23;1.00;;;21.90;40.80;;;;;;4934842;29;20130;-88
2022/04/12 10:33:38;;;;;;;2.08;0.80;;;21.60;40.80;;;;;;4935174;29;20027;-88
2022/04/12 10:36:06;;;;;;;1.00;0.90;;;21.80;41.10;;;;;;4936561;29;20023;-89
2022/04/12 10:38:41;;;;;;;2.88;1.85;;;21.80;40.70;;;;;;4936110;29;20023;-87
2022/04/12 10:41:15;;;;;;;2.22;1.00;;;22.00;40.10;;;;;;4936364;29;20035;-88
2022/04/12 10:43:42;;;;;;;2.63;1.02;;;22.40;40.40;;;;;;4934906;29;20035;-87
2022/04/12 10:46:11;;;;;;;2.97;0.80;;;22.70;38.80;;;;;;4935978;29;20035;-87
2022/04/12 10:48:37;;;;;;;2.10;1.13;;;22.90;39.40;;;;;;4935225;29;20032;-88
2022/04/12 10:51:05;;;;;;;2.22;1.17;;;23.20;39.50;;;;;;4935042;29;20071;-88
2022/04/12 10:53:40;;;;;;;2.80;0.88;;;23.40;38.60;;;;;;4937974;29;20027;-87
2022/04/12 10:56:11;;;;;;;1.83;1.00;;;23.70;39.10;;;;;;4935778;29;20056;-88
2022/04/12 10:58:37;;;;;;;3.00;1.02;;;23.90;37.60;;;;;;4934611;29;20507;-87
2022/04/12 11:01:05;;;;;;;2.42;0.80;;;24.00;37.80;;;;;;4934898;29;20484;-86
2022/04/12 11:03:52;;;;;;;4.60;0.90;;;24.10;37.60;;;;;;4935767;29;20062;-87
2022/04/12 11:06:26;;;;;;;2.40;0.95;;;24.20;38.20;;;;;;4934395;29;20032;-87
2022/04/12 11:08:53;;;;;;;3.30;1.20;;;24.50;36.20;;;;;;4934841;29;20123;-87
2022/04/12 11:11:20;;;;;;;2.95;0.90;;;24.40;36.20;;;;;;4935870;29;20031;-87
2022/04/12 11:13:49;;;;;;;1.38;1.13;;;24.50;37.20;;;;;;4935882;29;20480;-87
2022/04/12 11:16:17;;;;;;;1.05;0.77;;;24.70;35.40;;;;;;4950544;28;20119;-87
2022/04/12 11:18:56;;;;;;;3.28;0.95;;;24.80;35.70;;;;;;4936026;29;20027;-89
2022/04/12 11:21:45;;;;;;;2.47;0.80;;;25.10;35.80;;;;;;4935981;29;20047;-87
2022/04/12 11:24:14;;;;;;;2.88;1.00;;;25.10;34.30;;;;;;4927892;29;20043;-87
2022/04/12 11:26:50;;;;;;;0.75;0.60;;;24.90;32.90;;;;;;4934529;29;20032;-86
2022/04/12 11:29:22;;;;;;;1.45;0.88;;;24.80;33.50;;;;;;4950440;28;20527;-87
2022/04/12 11:31:53;;;;;;;2.78;0.85;;;24.70;33.50;;;;;;4935176;29;20031;-86
2022/04/12 11:34:21;;;;;;;1.38;0.65;;;24.70;34.50;;;;;;4967743;23;20181;-88
2022/04/12 11:36:50;;;;;;;2.30;0.80;;;24.60;32.80;;;;;;4954516;28;20450;-88
2022/04/12 11:39:24;;;;;;;3.22;1.10;;;24.70;32.70;;;;;;4936798;29;20024;-88
2022/04/12 11:41:50;;;;;;;1.77;0.90;;;25.00;32.00;;;;;;4936801;29;20050;-89
2022/04/12 11:44:20;;;;;;;1.52;0.70;;;25.10;33.10;;;;;;4946161;29;20030;-88
2022/04/12 11:46:46;;;;;;;1.92;1.05;;;25.30;33.30;;;;;;4935819;29;20042;-88
2022/04/12 11:49:15;;;;;;;4.72;1.05;;;25.60;31.50;;;;;;4936660;29;20031;-88
2022/04/12 11:51:43;;;;;;;3.72;0.52;;;25.50;30.90;;;;;;4940219;29;20023;-87
2022/04/12 11:54:25;;;;;;;5.18;0.90;;;25.50;30.60;;;;;;4939675;28;20110;-87
2022/04/12 11:57:01;;;;;;;3.70;0.88;;;25.70;30.80;;;;;;4936927;29;20031;-88
2022/04/12 11:59:29;;;;;;;3.88;1.00;;;25.90;31.00;;;;;;4954240;28;20027;-86
2022/04/12 12:02:01;;;;;;;2.33;0.70;;;25.90;29.90;;;;;;4936346;29;20396;-88
2022/04/12 12:04:32;;;;;;;1.42;0.75;;;26.00;30.80;;;;;;4936737;29;20476;-90
2022/04/12 12:07:01;;;;;;;3.63;0.80;;;26.10;30.20;;;;;;4936690;29;20031;-88
2022/04/12 12:09:27;;;;;;;6.38;0.80;;;26.00;30.70;;;;;;4954331;28;20055;-88
2022/04/12 12:11:57;;;;;;;3.58;0.70;;;26.30;30.50;;;;;;4955232;28;20027;-89
2022/04/12 12:14:22;;;;;;;2.67;0.80;;;26.50;29.50;;;;;;4940713;29;20067;-89
2022/04/12 12:17:03;;;;;;;1.52;0.73;;;26.20;29.30;;;;;;4940584;29;20027;-90
2022/04/12 12:19:43;;;;;;;2.35;0.85;;;26.10;29.60;;;;;;4921009;29;20027;-91
2022/04/12 12:22:10;;;;;;;1.02;0.65;;;25.80;30.70;;;;;;4919415;29;20498;-90
2022/04/12 12:24:54;;;;;;;3.50;1.10;;;25.80;30.70;;;;;;4937740;29;20136;-90
2022/04/12 12:27:31;;;;;;;2.80;1.13;;;25.70;30.00;;;;;;4938010;29;20157;-89
2022/04/12 12:30:14;;;;;;;5.88;1.10;;;25.60;30.20;;;;;;4920710;29;20031;-89
2022/04/12 12:32:41;;;;;;;1.30;0.77;;;25.80;29.90;;;;;;4937695;29;20032;-90
2022/04/12 12:35:08;;;;;;;33.25;5.95;;;26.10;29.90;;;;;;4937497;29;20103;-88
2022/04/12 12:37:34;;;;;;;31.73;6.05;;;26.00;30.00;;;;;;4921819;29;20192;-90
2022/04/12 12:40:18;;;;;;;37.92;7.25;;;26.20;29.90;;;;;;4920507;29;20023;-89
2022/04/12 12:42:44;;;;;;;5.05;0.93;;;26.00;30.40;;;;;;4920817;29;20040;-89
2022/04/12 12:45:12;;;;;;;23.48;3.95;;;26.00;29.50;;;;;;4938387;29;20050;-89
2022/04/12 12:47:40;;;;;;;9.75;1.83;;;26.20;30.00;;;;;;4937169;29;20039;-88
2022/04/12 12:50:09;;;;;;;3.25;1.30;;;26.40;29.70;;;;;;4946038;29;20031;-88
2022/04/12 12:52:35;;;;;;;7.65;1.30;;;26.30;29.50;;;;;;4942565;29;20058;-89
2022/04/12 12:55:01;;;;;;;3.15;0.90;;;26.30;29.50;;;;;;4956373;28;20024;-89
2022/04/12 12:57:38;;;;;;;2.72;0.88;;;26.40;29.60;;;;;;4939624;29;20447;-90
2022/04/12 13:00:07;;;;;;;1.83;0.75;;;26.20;29.20;;;;;;4939166;29;20070;-90